createdAt,value
2022-09-06T00:00:15.690Z,999.51
2022-09-06T00:01:15.675Z,999.50
2022-09-06T00:02:15.706Z,999.55
2022-09-06T00:03:15.654Z,999.51
2022-09-06T00:04:15.833Z,999.51
2022-09-06T00:05:15.631Z,999.51
2022-09-06T00:06:15.621Z,999.51
2022-09-06T00:07:15.613Z,999.53
2022-09-06T00:08:15.622Z,999.54
2022-09-06T00:09:15.617Z,999.54
2022-09-06T00:10:15.597Z,999.56
2022-09-06T00:11:15.564Z,999.55
2022-09-06T00:12:15.554Z,999.57
2022-09-06T00:13:15.557Z,999.58
2022-09-06T00:14:15.555Z,999.61
2022-09-06T00:15:15.527Z,999.60
2022-09-06T00:16:15.555Z,999.58
2022-09-06T00:17:15.498Z,999.59
2022-09-06T00:18:15.512Z,999.59
2022-09-06T00:19:15.503Z,999.58
2022-09-06T00:20:15.466Z,999.60
2022-09-06T00:21:15.455Z,999.61
2022-09-06T00:22:15.448Z,999.63
2022-09-06T00:23:15.431Z,999.58
2022-09-06T00:24:15.447Z,999.58
2022-09-06T00:25:15.410Z,999.58
2022-09-06T00:26:15.401Z,999.56
2022-09-06T00:27:15.388Z,999.57
2022-09-06T00:28:15.397Z,999.58
2022-09-06T00:29:15.371Z,999.56
2022-09-06T00:30:15.357Z,999.57
2022-09-06T00:31:15.418Z,999.55
2022-09-06T00:32:15.333Z,999.55
2022-09-06T00:33:15.338Z,999.51
2022-09-06T00:34:15.307Z,999.57
2022-09-06T00:35:15.319Z,999.57
2022-09-06T00:36:15.288Z,999.52
2022-09-06T00:37:15.277Z,999.53
2022-09-06T00:38:15.267Z,999.48
2022-09-06T00:39:15.257Z,999.49
2022-09-06T00:40:15.261Z,999.48
2022-09-06T00:41:15.229Z,999.43
2022-09-06T00:42:15.222Z,999.48
2022-09-06T00:43:15.208Z,999.51
2022-09-06T00:44:15.218Z,999.52
2022-09-06T00:45:15.186Z,999.47
2022-09-06T00:46:15.266Z,999.45
2022-09-06T00:47:15.166Z,999.45
2022-09-06T00:48:15.177Z,999.43
2022-09-06T00:49:15.168Z,999.39
2022-09-06T00:50:15.127Z,999.36
2022-09-06T00:51:15.118Z,999.37
2022-09-06T00:52:15.105Z,999.33
2022-09-06T00:53:15.116Z,999.36
2022-09-06T00:54:15.082Z,999.34
2022-09-06T00:55:15.101Z,999.35
2022-09-06T00:56:15.060Z,999.33
2022-09-06T00:57:15.060Z,999.30
2022-09-06T00:58:15.037Z,999.35
2022-09-06T00:59:15.055Z,999.29
2022-09-06T01:00:15.092Z,999.32
2022-09-06T01:01:15.073Z,999.32
2022-09-06T01:02:15.173Z,999.31
2022-09-06T01:03:14.982Z,999.25
2022-09-06T01:04:14.973Z,999.27
2022-09-06T01:05:14.984Z,999.28
2022-09-06T01:06:14.950Z,999.29
2022-09-06T01:07:14.941Z,999.26
2022-09-06T01:08:14.926Z,999.21
2022-09-06T01:09:14.921Z,999.23
2022-09-06T01:10:14.972Z,999.20
2022-09-06T01:11:14.892Z,999.18
2022-09-06T01:12:14.879Z,999.25
2022-09-06T01:13:14.870Z,999.20
2022-09-06T01:14:14.857Z,999.22
2022-09-06T01:15:14.868Z,999.22
2022-09-06T01:16:14.903Z,999.22
2022-09-06T01:17:14.825Z,999.19
2022-09-06T01:18:14.842Z,999.21
2022-09-06T01:19:14.800Z,999.21
2022-09-06T01:20:14.790Z,999.23
2022-09-06T01:21:14.782Z,999.23
2022-09-06T01:22:14.765Z,999.25
2022-09-06T01:23:14.783Z,999.18
2022-09-06T01:24:14.744Z,999.19
2022-09-06T01:25:14.743Z,999.13
2022-09-06T01:26:14.722Z,999.12
2022-09-06T01:27:14.710Z,999.13
2022-09-06T01:28:14.718Z,999.08
2022-09-06T01:29:14.688Z,999.07
2022-09-06T01:30:14.675Z,999.11
2022-09-06T01:31:14.721Z,999.08
2022-09-06T01:32:14.652Z,999.05
2022-09-06T01:33:14.664Z,999.05
2022-09-06T01:34:14.631Z,999.04
2022-09-06T01:35:14.643Z,999.05
2022-09-06T01:36:14.607Z,999.07
2022-09-06T01:37:14.622Z,999.07
2022-09-06T01:38:14.584Z,999.09
2022-09-06T01:39:14.575Z,999.09
2022-09-06T01:40:14.565Z,999.08
2022-09-06T01:41:14.573Z,999.04
2022-09-06T01:42:14.558Z,999.04
2022-09-06T01:43:14.529Z,999.00
2022-09-06T01:44:14.523Z,999.01
2022-09-06T01:45:14.507Z,998.95
2022-09-06T01:46:14.597Z,998.96
2022-09-06T01:47:14.491Z,998.97
2022-09-06T01:48:14.471Z,998.95
2022-09-06T01:49:14.488Z,998.96
2022-09-06T01:50:14.450Z,999.02
2022-09-06T01:51:14.439Z,999.04
2022-09-06T01:52:14.429Z,999.07
2022-09-06T01:53:14.419Z,999.06
2022-09-06T01:54:14.427Z,999.05
2022-09-06T01:55:14.395Z,999.05
2022-09-06T01:56:14.381Z,999.03
2022-09-06T01:57:14.392Z,999.01
2022-09-06T01:58:14.360Z,999.04
2022-09-06T01:59:14.387Z,999.06
2022-09-06T02:00:14.360Z,999.02
2022-09-06T02:01:14.426Z,999.01
2022-09-06T02:02:14.410Z,999.03
2022-09-06T02:03:14.321Z,999.00
2022-09-06T02:04:14.295Z,998.98
2022-09-06T02:05:14.325Z,998.93
2022-09-06T02:06:14.267Z,998.94
2022-09-06T02:07:14.281Z,998.94
2022-09-06T02:08:14.247Z,998.91
2022-09-06T02:09:14.267Z,998.93
2022-09-06T02:10:14.222Z,998.93
2022-09-06T02:11:14.213Z,998.92
2022-09-06T02:12:14.223Z,998.86
2022-09-06T02:13:14.190Z,998.82
2022-09-06T02:14:14.180Z,998.84
2022-09-06T02:15:14.169Z,998.86
2022-09-06T02:16:14.369Z,998.85
2022-09-06T02:17:14.146Z,998.84
2022-09-06T02:18:14.132Z,998.86
2022-09-06T02:19:14.123Z,998.84
2022-09-06T02:20:14.110Z,998.81
2022-09-06T02:21:14.103Z,998.80
2022-09-06T02:22:14.110Z,998.76
2022-09-06T02:23:14.077Z,998.80
2022-09-06T02:24:14.065Z,998.74
2022-09-06T02:25:14.055Z,998.74
2022-09-06T02:26:14.045Z,998.74
2022-09-06T02:27:14.052Z,998.71
2022-09-06T02:28:14.041Z,998.71
2022-09-06T02:29:14.015Z,998.69
2022-09-06T02:30:13.999Z,998.70
2022-09-06T02:31:14.045Z,998.68
2022-09-06T02:32:13.995Z,998.65
2022-09-06T02:33:13.987Z,998.67
2022-09-06T02:34:13.952Z,998.65
2022-09-06T02:35:13.942Z,998.65
2022-09-06T02:36:13.961Z,998.65
2022-09-06T02:37:13.925Z,998.69
2022-09-06T02:38:13.933Z,998.69
2022-09-06T02:39:13.895Z,998.71
2022-09-06T02:40:13.883Z,998.71
2022-09-06T02:41:13.875Z,998.70
2022-09-06T02:42:13.894Z,998.72
2022-09-06T02:43:13.934Z,998.73
2022-09-06T02:44:13.837Z,998.73
2022-09-06T02:45:13.828Z,998.76
2022-09-06T02:46:13.878Z,998.77
2022-09-06T02:47:13.805Z,998.77
2022-09-06T02:48:13.814Z,998.77
2022-09-06T02:49:13.782Z,998.77
2022-09-06T02:50:13.769Z,998.78
2022-09-06T02:51:13.764Z,998.72
2022-09-06T02:52:13.755Z,998.68
2022-09-06T02:53:13.764Z,998.66
2022-09-06T02:54:13.775Z,998.65
2022-09-06T02:55:13.726Z,998.67
2022-09-06T02:56:13.705Z,998.66
2022-09-06T02:57:13.747Z,998.64
2022-09-06T02:58:13.705Z,998.67
2022-09-06T02:59:13.700Z,998.65
2022-09-06T03:00:13.689Z,998.66
2022-09-06T03:01:13.744Z,998.65
2022-09-06T03:02:13.658Z,998.61
2022-09-06T03:03:13.624Z,998.68
2022-09-06T03:04:13.639Z,998.63
2022-09-06T03:05:13.645Z,998.62
2022-09-06T03:06:13.589Z,998.63
2022-09-06T03:07:13.579Z,998.64
2022-09-06T03:08:13.567Z,998.61
2022-09-06T03:09:13.572Z,998.61
2022-09-06T03:10:13.563Z,998.67
2022-09-06T03:11:13.674Z,998.68
2022-09-06T03:12:13.522Z,998.69
2022-09-06T03:13:13.512Z,998.68
2022-09-06T03:14:13.518Z,998.71
2022-09-06T03:15:13.488Z,998.68
2022-09-06T03:16:13.548Z,998.65
2022-09-06T03:17:13.469Z,998.70
2022-09-06T03:18:13.453Z,998.69
2022-09-06T03:19:13.477Z,998.66
2022-09-06T03:20:13.432Z,998.67
2022-09-06T03:21:13.432Z,998.70
2022-09-06T03:22:13.408Z,998.76
2022-09-06T03:23:13.422Z,998.77
2022-09-06T03:24:13.391Z,998.75
2022-09-06T03:25:13.378Z,998.76
2022-09-06T03:26:13.417Z,998.77
2022-09-06T03:27:13.355Z,998.73
2022-09-06T03:28:13.347Z,998.68
2022-09-06T03:29:13.332Z,998.71
2022-09-06T03:30:13.350Z,998.72
2022-09-06T03:31:13.338Z,998.73
2022-09-06T03:32:13.294Z,998.72
2022-09-06T03:33:13.285Z,998.73
2022-09-06T03:34:13.275Z,998.71
2022-09-06T03:35:13.509Z,998.70
2022-09-06T03:36:13.254Z,998.72
2022-09-06T03:37:13.242Z,998.66
2022-09-06T03:38:13.227Z,998.67
2022-09-06T03:39:13.216Z,998.67
2022-09-06T03:40:13.229Z,998.68
2022-09-06T03:41:13.196Z,998.69
2022-09-06T03:42:13.202Z,998.63
2022-09-06T03:43:13.172Z,998.70
2022-09-06T03:44:13.160Z,998.72
2022-09-06T03:45:13.149Z,998.69
2022-09-06T03:46:13.201Z,998.69
2022-09-06T03:47:15.570Z,998.63
2022-09-06T03:48:14.112Z,998.62
2022-09-06T03:49:13.103Z,998.71
2022-09-06T03:50:13.142Z,998.65
2022-09-06T03:51:13.110Z,998.60
2022-09-06T03:52:13.070Z,998.60
2022-09-06T03:53:13.059Z,998.59
2022-09-06T03:54:13.045Z,998.58
2022-09-06T03:55:13.086Z,998.55
2022-09-06T03:56:13.056Z,998.51
2022-09-06T03:57:13.015Z,998.51
2022-09-06T03:58:13.027Z,998.53
2022-09-06T03:59:12.991Z,998.50
2022-09-06T04:00:12.981Z,998.47
2022-09-06T04:01:13.051Z,998.48
2022-09-06T04:02:13.004Z,998.47
2022-09-06T04:03:12.946Z,998.50
2022-09-06T04:04:12.952Z,998.47
2022-09-06T04:05:12.924Z,998.49
2022-09-06T04:06:12.917Z,998.46
2022-09-06T04:07:12.900Z,998.49
2022-09-06T04:08:12.908Z,998.48
2022-09-06T04:09:12.880Z,998.43
2022-09-06T04:10:12.952Z,998.42
2022-09-06T04:11:12.878Z,998.43
2022-09-06T04:12:12.842Z,998.38
2022-09-06T04:13:12.835Z,998.39
2022-09-06T04:14:12.818Z,998.39
2022-09-06T04:15:12.811Z,998.38
2022-09-06T04:16:12.889Z,998.35
2022-09-06T04:17:12.787Z,998.35
2022-09-06T04:18:12.774Z,998.35
2022-09-06T04:19:12.769Z,998.35
2022-09-06T04:20:12.754Z,998.35
2022-09-06T04:21:12.744Z,998.34
2022-09-06T04:22:12.755Z,998.35
2022-09-06T04:23:12.724Z,998.32
2022-09-06T04:24:12.708Z,998.34
2022-09-06T04:25:12.700Z,998.30
2022-09-06T04:26:12.704Z,998.35
2022-09-06T04:27:12.674Z,998.36
2022-09-06T04:28:12.667Z,998.34
2022-09-06T04:29:12.666Z,998.31
2022-09-06T04:30:12.687Z,998.32
2022-09-06T04:31:12.628Z,998.31
2022-09-06T04:32:12.690Z,998.29
2022-09-06T04:33:12.640Z,998.28
2022-09-06T04:34:12.592Z,998.25
2022-09-06T04:35:12.604Z,998.28
2022-09-06T04:36:12.572Z,998.30
2022-09-06T04:37:12.561Z,998.28
2022-09-06T04:38:12.573Z,998.27
2022-09-06T04:39:12.539Z,998.30
2022-09-06T04:40:12.525Z,998.27
2022-09-06T04:41:12.515Z,998.22
2022-09-06T04:42:12.502Z,998.24
2022-09-06T04:43:12.495Z,998.21
2022-09-06T04:44:12.499Z,998.19
2022-09-06T04:45:12.470Z,998.19
2022-09-06T04:46:12.501Z,998.19
2022-09-06T04:47:12.448Z,998.17
2022-09-06T04:48:12.435Z,998.18
2022-09-06T04:49:12.446Z,998.19
2022-09-06T04:50:12.419Z,998.12
2022-09-06T04:51:12.443Z,998.14
2022-09-06T04:52:12.405Z,998.14
2022-09-06T04:53:12.387Z,998.17
2022-09-06T04:54:12.386Z,998.16
2022-09-06T04:55:12.357Z,998.11
2022-09-06T04:56:12.343Z,998.18
2022-09-06T04:57:12.333Z,998.13
2022-09-06T04:58:12.345Z,998.17
2022-09-06T04:59:12.312Z,998.19
2022-09-06T05:00:12.298Z,998.14
2022-09-06T05:01:12.383Z,998.13
2022-09-06T05:02:12.358Z,998.18
2022-09-06T05:03:12.267Z,998.20
2022-09-06T05:04:12.255Z,998.24
2022-09-06T05:05:12.240Z,998.23
2022-09-06T05:06:12.232Z,998.22
2022-09-06T05:07:12.243Z,998.27
2022-09-06T05:08:12.208Z,998.28
2022-09-06T05:09:12.216Z,998.32
2022-09-06T05:10:12.185Z,998.34
2022-09-06T05:11:12.172Z,998.28
2022-09-06T05:12:12.196Z,998.29
2022-09-06T05:13:12.152Z,998.31
2022-09-06T05:14:12.139Z,998.27
2022-09-06T05:15:12.127Z,998.29
2022-09-06T05:16:12.234Z,998.29
2022-09-06T05:17:12.109Z,998.28
2022-09-06T05:18:16.081Z,998.27
2022-09-06T05:19:12.106Z,998.31
2022-09-06T05:20:12.071Z,998.29
2022-09-06T05:21:12.062Z,998.29
2022-09-06T05:22:12.054Z,998.38
2022-09-06T05:23:12.061Z,998.35
2022-09-06T05:24:12.030Z,998.38
2022-09-06T05:25:12.016Z,998.37
2022-09-06T05:26:12.026Z,998.38
2022-09-06T05:27:11.991Z,998.34
2022-09-06T05:28:11.983Z,998.31
2022-09-06T05:29:11.996Z,998.30
2022-09-06T05:30:11.960Z,998.27
2022-09-06T05:31:12.134Z,998.31
2022-09-06T05:32:11.938Z,998.30
2022-09-06T05:33:11.924Z,998.28
2022-09-06T05:34:11.915Z,998.31
2022-09-06T05:35:11.920Z,998.35
2022-09-06T05:36:11.890Z,998.35
2022-09-06T05:37:11.879Z,998.42
2022-09-06T05:38:11.869Z,998.44
2022-09-06T05:39:11.880Z,998.45
2022-09-06T05:40:12.004Z,998.50
2022-09-06T05:41:11.834Z,998.53
2022-09-06T05:42:14.879Z,998.51
2022-09-06T05:43:12.809Z,998.50
2022-09-06T05:44:12.001Z,998.43
2022-09-06T05:45:11.790Z,998.39
2022-09-06T05:46:11.823Z,998.35
2022-09-06T05:47:11.767Z,998.37
2022-09-06T05:48:11.779Z,998.40
2022-09-06T05:49:11.744Z,998.38
2022-09-06T05:50:11.739Z,998.37
2022-09-06T05:51:11.727Z,998.42
2022-09-06T05:52:11.716Z,998.50
2022-09-06T05:53:11.741Z,998.55
2022-09-06T05:54:11.688Z,998.57
2022-09-06T05:55:11.675Z,998.60
2022-09-06T05:56:11.666Z,998.61
2022-09-06T05:57:11.674Z,998.64
2022-09-06T05:58:11.644Z,998.68
2022-09-06T05:59:11.636Z,998.75
2022-09-06T06:00:11.629Z,998.77
2022-09-06T06:01:11.695Z,998.84
2022-09-06T06:02:11.691Z,998.81
2022-09-06T06:03:11.587Z,998.79
2022-09-06T06:04:11.576Z,998.75
2022-09-06T06:05:11.563Z,998.77
2022-09-06T06:06:11.574Z,998.70
2022-09-06T06:07:11.542Z,998.71
2022-09-06T06:08:11.536Z,998.76
2022-09-06T06:09:11.522Z,998.80
2022-09-06T06:10:11.539Z,998.79
2022-09-06T06:11:11.496Z,998.81
2022-09-06T06:12:11.500Z,998.78
2022-09-06T06:13:11.812Z,998.85
2022-09-06T06:14:11.474Z,998.92
2022-09-06T06:15:11.451Z,998.95
2022-09-06T06:16:11.537Z,999.04
2022-09-06T06:17:11.427Z,999.05
2022-09-06T06:18:11.417Z,999.04
2022-09-06T06:19:11.408Z,999.01
2022-09-06T06:20:11.419Z,998.96
2022-09-06T06:21:11.383Z,998.92
2022-09-06T06:22:11.377Z,998.92
2022-09-06T06:23:11.359Z,998.90
2022-09-06T06:24:11.374Z,998.83
2022-09-06T06:25:12.669Z,998.86
2022-09-06T06:26:11.334Z,998.86
2022-09-06T06:27:11.316Z,998.84
2022-09-06T06:28:11.306Z,998.84
2022-09-06T06:29:11.313Z,998.80
2022-09-06T06:30:14.205Z,998.84
2022-09-06T06:31:12.357Z,998.82
2022-09-06T06:32:11.291Z,998.79
2022-09-06T06:33:11.248Z,998.74
2022-09-06T06:34:11.266Z,998.77
2022-09-06T06:35:11.228Z,998.77
2022-09-06T06:36:11.237Z,998.80
2022-09-06T06:37:11.203Z,998.82
2022-09-06T06:38:11.193Z,998.84
2022-09-06T06:39:11.205Z,998.80
2022-09-06T06:40:11.264Z,998.73
2022-09-06T06:41:11.156Z,998.75
2022-09-06T06:42:11.153Z,998.70
2022-09-06T06:43:11.154Z,998.72
2022-09-06T06:44:11.132Z,998.64
2022-09-06T06:45:11.133Z,998.70
2022-09-06T06:46:11.208Z,998.71
2022-09-06T06:47:11.087Z,998.68
2022-09-06T06:48:11.082Z,998.69
2022-09-06T06:49:11.201Z,998.67
2022-09-06T06:50:11.057Z,998.64
2022-09-06T06:51:11.046Z,998.65
2022-09-06T06:52:11.055Z,998.65
2022-09-06T06:53:11.021Z,998.63
2022-09-06T06:54:11.013Z,998.61
2022-09-06T06:55:11.019Z,998.56
2022-09-06T06:56:10.989Z,998.59
2022-09-06T06:57:10.980Z,998.60
2022-09-06T06:58:10.971Z,998.60
2022-09-06T06:59:10.955Z,998.59
2022-09-06T07:00:10.972Z,998.62
2022-09-06T07:01:11.060Z,998.71
2022-09-06T07:02:11.118Z,998.68
2022-09-06T07:03:10.910Z,998.58
2022-09-06T07:04:10.899Z,998.59
2022-09-06T07:06:12.670Z,998.48
2022-09-06T07:08:11.855Z,998.41
2022-09-06T07:09:10.844Z,998.41
2022-09-06T07:11:11.838Z,998.41
2022-09-06T07:12:10.834Z,998.46
2022-09-06T07:13:10.797Z,998.50
2022-09-06T07:14:10.809Z,998.52
2022-09-06T07:15:10.775Z,998.51
2022-09-06T07:16:10.822Z,998.46
2022-09-06T07:17:10.775Z,998.50
2022-09-06T07:18:10.745Z,998.52
2022-09-06T07:21:39.935Z,998.43
2022-09-06T07:22:13.602Z,998.42
2022-09-06T07:24:11.675Z,998.40
2022-09-06T07:25:10.666Z,998.37
2022-09-06T07:26:10.654Z,998.37
2022-09-06T07:28:11.630Z,998.42
2022-09-06T07:29:10.617Z,998.47
2022-09-06T07:30:10.613Z,998.41
2022-09-06T07:32:11.923Z,998.45
2022-09-06T07:33:10.574Z,998.49
2022-09-06T07:34:10.564Z,998.47
2022-09-06T07:35:10.552Z,998.49
2022-09-06T07:36:10.543Z,998.46
2022-09-06T07:37:10.551Z,998.51
2022-09-06T07:38:10.521Z,998.49
2022-09-06T07:39:10.507Z,998.45
2022-09-06T07:40:10.592Z,998.49
2022-09-06T07:41:10.488Z,998.42
2022-09-06T07:42:10.498Z,998.39
2022-09-06T07:43:10.463Z,998.30
2022-09-06T07:44:10.459Z,998.32
2022-09-06T07:45:10.439Z,998.28
2022-09-06T07:46:10.428Z,998.34
2022-09-06T07:48:11.428Z,998.33
2022-09-06T07:49:10.468Z,998.33
2022-09-06T07:51:11.376Z,998.29
2022-09-06T07:53:15.183Z,998.34
2022-09-06T07:54:29.883Z,998.35
2022-09-06T07:55:11.327Z,998.38
2022-09-06T07:56:10.317Z,998.37
2022-09-06T07:57:10.324Z,998.33
2022-09-06T07:58:10.295Z,998.34
2022-09-06T07:59:10.285Z,998.28
2022-09-06T08:00:10.292Z,998.29
2022-09-06T08:01:10.465Z,998.35
2022-09-06T08:02:10.295Z,998.36
2022-09-06T08:03:10.261Z,998.39
2022-09-06T08:04:10.237Z,998.40
2022-09-06T08:06:11.275Z,998.43
2022-09-06T08:09:11.171Z,998.45
2022-09-06T08:10:10.214Z,998.38
2022-09-06T08:11:10.171Z,998.35
2022-09-06T08:12:10.141Z,998.40
2022-09-06T08:13:10.131Z,998.33
2022-09-06T08:14:10.123Z,998.30
2022-09-06T08:15:10.127Z,998.36
2022-09-06T08:16:10.147Z,998.35
2022-09-06T08:17:10.124Z,998.35
2022-09-06T08:18:10.075Z,998.37
2022-09-06T08:19:10.062Z,998.38
2022-09-06T08:20:10.094Z,998.37
2022-09-06T08:21:12.434Z,998.40
2022-09-06T08:22:10.057Z,998.42
2022-09-06T08:23:10.023Z,998.39
2022-09-06T08:24:10.010Z,998.35
2022-09-06T08:25:10.017Z,998.38
2022-09-06T08:26:09.986Z,998.32
2022-09-06T08:27:09.973Z,998.28
2022-09-06T08:28:09.966Z,998.28
2022-09-06T08:29:09.997Z,998.27
2022-09-06T08:30:09.967Z,998.24
2022-09-06T08:31:09.995Z,998.28
2022-09-06T08:32:09.942Z,998.26
2022-09-06T08:33:09.907Z,998.23
2022-09-06T08:34:09.899Z,998.23
2022-09-06T08:35:09.905Z,998.24
2022-09-06T08:36:09.874Z,998.26
2022-09-06T08:37:09.863Z,998.31
2022-09-06T08:38:09.854Z,998.29
2022-09-06T08:39:09.868Z,998.24
2022-09-06T08:40:09.940Z,998.22
2022-09-06T08:41:09.818Z,998.16
2022-09-06T08:42:09.827Z,998.15
2022-09-06T08:43:09.797Z,998.16
2022-09-06T08:45:10.791Z,998.23
2022-09-06T08:46:09.854Z,998.22
2022-09-06T08:47:09.771Z,998.26
2022-09-06T08:48:09.741Z,998.27
2022-09-06T08:49:09.732Z,998.32
2022-09-06T08:50:09.717Z,998.36
2022-09-06T08:51:09.702Z,998.29
2022-09-06T08:52:09.716Z,998.35
2022-09-06T08:53:17.851Z,998.29
2022-09-06T08:54:10.670Z,998.33
2022-09-06T08:55:09.660Z,998.31
2022-09-06T08:56:09.645Z,998.32
2022-09-06T08:57:09.654Z,998.31
2022-09-06T08:58:09.648Z,998.31
2022-09-06T08:59:09.611Z,998.37
2022-09-06T09:00:11.068Z,998.37
2022-09-06T09:01:09.640Z,998.31
2022-09-06T09:02:09.820Z,998.35
2022-09-06T09:03:12.131Z,998.36
2022-09-06T09:04:10.554Z,998.37
2022-09-06T09:05:09.544Z,998.38
2022-09-06T09:06:09.567Z,998.32
2022-09-06T09:07:09.541Z,998.37
2022-09-06T09:08:09.513Z,998.33
2022-09-06T09:09:09.501Z,998.37
2022-09-06T09:10:09.492Z,998.36
2022-09-06T09:11:09.498Z,998.33
2022-09-06T09:12:09.768Z,998.31
2022-09-06T09:13:09.476Z,998.27
2022-09-06T09:14:09.445Z,998.32
2022-09-06T09:15:09.442Z,998.31
2022-09-06T09:16:09.483Z,998.29
2022-09-06T09:17:09.441Z,998.21
2022-09-06T09:18:09.405Z,998.16
2022-09-06T09:19:09.392Z,998.18
2022-09-06T09:20:09.378Z,998.19
2022-09-06T09:21:09.368Z,998.15
2022-09-06T09:22:09.403Z,998.18
2022-09-06T09:23:09.348Z,998.09
2022-09-06T09:24:09.340Z,998.12
2022-09-06T09:25:09.326Z,998.12
2022-09-06T09:26:09.311Z,998.12
2022-09-06T09:27:09.307Z,998.04
2022-09-06T09:28:09.314Z,998.03
2022-09-06T09:29:09.283Z,998.01
2022-09-06T09:31:10.355Z,997.91
2022-09-06T09:32:09.248Z,998.01
2022-09-06T09:33:09.235Z,997.94
2022-09-06T09:34:09.224Z,997.95
2022-09-06T09:35:09.237Z,997.96
2022-09-06T09:36:09.201Z,997.95
2022-09-06T09:38:12.029Z,997.88
2022-09-06T09:39:09.170Z,997.91
2022-09-06T09:40:09.252Z,997.85
2022-09-06T09:41:09.149Z,997.89
2022-09-06T09:42:09.135Z,997.90
2022-09-06T09:43:09.143Z,997.88
2022-09-06T09:44:09.113Z,997.91
2022-09-06T09:45:09.124Z,997.87
2022-09-06T09:46:09.158Z,997.89
2022-09-06T09:47:09.081Z,997.94
2022-09-06T09:48:09.091Z,997.90
2022-09-06T09:49:09.079Z,997.87
2022-09-06T09:50:09.047Z,997.91
2022-09-06T09:51:09.035Z,997.93
2022-09-06T09:52:09.024Z,997.92
2022-09-06T09:53:09.022Z,997.95
2022-09-06T09:54:09.022Z,997.94
2022-09-06T09:55:08.991Z,997.89
2022-09-06T09:56:08.979Z,997.91
2022-09-06T09:57:11.682Z,997.87
2022-09-06T09:58:08.978Z,997.83
2022-09-06T09:59:08.969Z,997.78
2022-09-06T10:00:08.935Z,997.77
2022-09-06T10:01:09.021Z,997.77
2022-09-06T10:02:08.914Z,997.79
2022-09-06T10:03:08.976Z,997.77
2022-09-06T10:05:09.971Z,997.73
2022-09-06T10:07:10.370Z,997.71
2022-09-06T10:08:08.846Z,997.70
2022-09-06T10:09:08.860Z,997.70
2022-09-06T10:10:08.825Z,997.67
2022-09-06T10:11:08.817Z,997.67
2022-09-06T10:12:08.803Z,997.70
2022-09-06T10:13:08.792Z,997.71
2022-09-06T10:14:08.785Z,997.73
2022-09-06T10:15:08.799Z,997.76
2022-09-06T10:16:08.830Z,997.75
2022-09-06T10:17:08.751Z,997.73
2022-09-06T10:18:08.737Z,997.76
2022-09-06T10:19:08.732Z,997.71
2022-09-06T10:20:08.736Z,997.72
2022-09-06T10:21:08.705Z,997.64
2022-09-06T10:22:08.717Z,997.60
2022-09-06T10:23:08.709Z,997.58
2022-09-06T10:25:09.686Z,997.49
2022-09-06T10:26:08.650Z,997.56
2022-09-06T10:27:08.641Z,997.53
2022-09-06T10:28:11.309Z,997.50
2022-09-06T10:29:08.618Z,997.50
2022-09-06T10:30:08.607Z,997.51
2022-09-06T10:31:08.694Z,997.52
2022-09-06T10:32:08.604Z,997.48
2022-09-06T10:33:08.575Z,997.45
2022-09-06T10:34:08.564Z,997.49
2022-09-06T10:35:08.573Z,997.45
2022-09-06T10:36:08.541Z,997.39
2022-09-06T10:37:08.531Z,997.41
2022-09-06T10:38:08.541Z,997.40
2022-09-06T10:39:08.509Z,997.44
2022-09-06T10:40:08.634Z,997.42
2022-09-06T10:41:08.501Z,997.38
2022-09-06T10:42:08.474Z,997.38
2022-09-06T10:43:08.488Z,997.38
2022-09-06T10:44:08.453Z,997.35
2022-09-06T10:45:08.444Z,997.40
2022-09-06T10:46:08.507Z,997.38
2022-09-06T10:47:08.422Z,997.35
2022-09-06T10:48:12.475Z,997.34
2022-09-06T10:49:09.426Z,997.33
2022-09-06T10:50:08.389Z,997.32
2022-09-06T10:51:08.380Z,997.35
2022-09-06T10:52:08.367Z,997.31
2022-09-06T10:53:08.378Z,997.37
2022-09-06T10:54:08.345Z,997.34
2022-09-06T10:55:08.362Z,997.38
2022-09-06T10:56:08.323Z,997.37
2022-09-06T10:57:08.415Z,997.38
2022-09-06T11:00:09.287Z,997.35
2022-09-06T11:01:08.271Z,997.33
2022-09-06T11:02:08.413Z,997.29
2022-09-06T11:04:12.707Z,997.22
2022-09-06T11:06:09.215Z,997.17
2022-09-06T11:07:08.205Z,997.21
2022-09-06T11:09:09.202Z,997.18
2022-09-06T11:10:08.171Z,997.16
2022-09-06T11:11:08.162Z,997.21
2022-09-06T11:12:08.172Z,997.15
2022-09-06T11:13:08.139Z,997.15
2022-09-06T11:14:08.147Z,997.16
2022-09-06T11:15:08.119Z,997.18
2022-09-06T11:16:08.255Z,997.19
2022-09-06T11:17:08.119Z,997.19
2022-09-06T11:18:08.106Z,997.20
2022-09-06T11:19:08.094Z,997.20
2022-09-06T11:20:08.062Z,997.23
2022-09-06T11:21:08.052Z,997.22
2022-09-06T11:22:08.041Z,997.18
2022-09-06T11:23:08.031Z,997.22
2022-09-06T11:24:08.040Z,997.18
2022-09-06T11:25:08.013Z,997.17
2022-09-06T11:26:08.006Z,997.19
2022-09-06T11:27:07.988Z,997.21
2022-09-06T11:28:07.996Z,997.19
2022-09-06T11:29:07.966Z,997.15
2022-09-06T11:30:07.954Z,997.13
2022-09-06T11:31:08.418Z,997.14
2022-09-06T11:33:08.942Z,997.14
2022-09-06T11:34:07.912Z,997.12
2022-09-06T11:35:07.901Z,997.15
2022-09-06T11:36:07.890Z,997.20
2022-09-06T11:37:07.880Z,997.16
2022-09-06T11:38:07.890Z,997.16
2022-09-06T11:39:07.858Z,997.18
2022-09-06T11:41:12.094Z,997.22
2022-09-06T11:42:07.847Z,997.22
2022-09-06T11:43:07.815Z,997.20
2022-09-06T11:44:07.802Z,997.14
2022-09-06T11:45:07.794Z,997.08
2022-09-06T11:46:07.838Z,997.10
2022-09-06T11:47:07.773Z,997.11
2022-09-06T11:48:07.760Z,997.12
2022-09-06T11:49:07.753Z,997.14
2022-09-06T11:50:07.758Z,997.11
2022-09-06T11:51:07.757Z,997.13
2022-09-06T11:52:07.716Z,997.10
2022-09-06T11:53:07.726Z,997.17
2022-09-06T11:54:07.698Z,997.17
2022-09-06T11:55:07.685Z,997.11
2022-09-06T11:56:07.694Z,997.11
2022-09-06T11:57:07.664Z,997.09
2022-09-06T11:58:07.653Z,997.08
2022-09-06T11:59:07.642Z,997.12
2022-09-06T12:00:07.656Z,997.12
2022-09-06T12:01:07.641Z,997.10
2022-09-06T12:02:07.624Z,997.08
2022-09-06T12:04:09.743Z,997.07
2022-09-06T12:05:07.676Z,997.09
2022-09-06T12:06:07.588Z,997.11
2022-09-06T12:07:07.556Z,997.14
2022-09-06T12:08:07.545Z,997.13
2022-09-06T12:09:07.534Z,997.09
2022-09-06T12:10:07.524Z,997.09
2022-09-06T12:11:07.537Z,997.10
2022-09-06T12:12:07.522Z,997.09
2022-09-06T12:13:07.501Z,997.07
2022-09-06T12:14:07.480Z,997.07
2022-09-06T12:15:07.474Z,997.07
2022-09-06T12:16:07.689Z,997.05
2022-09-06T12:17:07.452Z,996.99
2022-09-06T12:18:07.441Z,996.98
2022-09-06T12:19:07.427Z,996.99
2022-09-06T12:20:07.422Z,997.00
2022-09-06T12:21:07.428Z,997.00
2022-09-06T12:22:07.396Z,997.02
2022-09-06T12:23:07.384Z,997.03
2022-09-06T12:24:07.372Z,997.00
2022-09-06T12:25:07.388Z,997.01
2022-09-06T12:26:07.355Z,996.95
2022-09-06T12:27:07.364Z,996.94
2022-09-06T12:28:07.329Z,996.92
2022-09-06T12:29:07.320Z,996.93
2022-09-06T12:30:07.328Z,996.89
2022-09-06T12:31:07.343Z,996.91
2022-09-06T12:32:07.289Z,996.91
2022-09-06T12:33:07.279Z,996.93
2022-09-06T12:34:07.299Z,996.89
2022-09-06T12:36:08.245Z,996.87
2022-09-06T12:37:07.251Z,996.88
2022-09-06T12:38:07.221Z,996.85
2022-09-06T12:39:07.233Z,996.83
2022-09-06T12:40:07.271Z,996.80
2022-09-06T12:41:07.190Z,996.82
2022-09-06T12:42:07.184Z,996.79
2022-09-06T12:43:07.201Z,996.76
2022-09-06T12:44:07.157Z,996.73
2022-09-06T12:45:07.169Z,996.71
2022-09-06T12:46:07.186Z,996.74
2022-09-06T12:47:07.126Z,996.74
2022-09-06T12:48:07.117Z,996.70
2022-09-06T12:49:07.109Z,996.74
2022-09-06T12:50:07.093Z,996.72
2022-09-06T12:51:07.103Z,996.68
2022-09-06T12:52:07.097Z,996.70
2022-09-06T12:53:07.061Z,996.65
2022-09-06T12:54:07.051Z,996.62
2022-09-06T12:55:07.041Z,996.65
2022-09-06T12:56:07.051Z,996.61
2022-09-06T12:57:07.050Z,996.61